SWR39I LDRI-LSZS
Flight info
| Callsign | SWR39I |
|---|---|
| Flight time | 0h 46m |
| Altitude | 32000 |
| Route | PUL P11 ROTAR L615 ADOSA P131 RESIA Z50 PELAD |
| Aircraft | A320/M-SDE3FGHIRWY/LB1 |
Departure
| Time | 2026-04-25 08:01 |
|---|---|
| Airport | Rijeka Airport (LDRI) |
Arrival
| Time | 2026-04-25 08:48 |
|---|---|
| Airport | Engadin Airport (LSZS) |
| Time | Latitude | Longitude | Altitude | Speed | Heading |
|---|---|---|---|---|---|
| 2026-04-25 07:32 | 45.21990 | 14.57048 | 269 ft | 0 kts | 118° |
| 2026-04-25 07:55 | 45.21986 | 14.57054 | 269 ft | 3 kts | 128° |
| 2026-04-25 07:56 | 45.21959 | 14.57034 | 268 ft | 5 kts | 202° |
| 2026-04-25 07:56 | 45.21935 | 14.57050 | 268 ft | 3 kts | 141° |
| 2026-04-25 07:56 | 45.21912 | 14.57076 | 268 ft | 12 kts | 141° |
| 2026-04-25 07:56 | 45.21823 | 14.57170 | 268 ft | 17 kts | 144° |
| 2026-04-25 07:57 | 45.21712 | 14.57202 | 266 ft | 18 kts | 182° |
| 2026-04-25 07:57 | 45.21580 | 14.57194 | 265 ft | 20 kts | 177° |
| 2026-04-25 07:57 | 45.21464 | 14.57293 | 265 ft | 21 kts | 144° |
| 2026-04-25 07:57 | 45.21341 | 14.57421 | 264 ft | 23 kts | 143° |
| 2026-04-25 07:58 | 45.21206 | 14.57562 | 260 ft | 25 kts | 144° |
| 2026-04-25 07:58 | 45.21062 | 14.57712 | 261 ft | 26 kts | 143° |
| 2026-04-25 07:58 | 45.20916 | 14.57864 | 266 ft | 25 kts | 143° |
| 2026-04-25 07:58 | 45.20799 | 14.57986 | 267 ft | 8 kts | 143° |
| 2026-04-25 07:59 | 45.20768 | 14.57985 | 268 ft | 3 kts | 231° |
| 2026-04-25 07:59 | 45.20773 | 14.57962 | 268 ft | 4 kts | 309° |
| 2026-04-25 07:59 | 45.20795 | 14.57969 | 268 ft | 4 kts | 21° |
| 2026-04-25 07:59 | 45.20821 | 14.57965 | 267 ft | 4 kts | 328° |
| 2026-04-25 08:00 | 45.20828 | 14.57956 | 267 ft | 0 kts | 322° |
| 2026-04-25 08:00 | 45.20848 | 14.57935 | 267 ft | 15 kts | 322° |
| 2026-04-25 08:00 | 45.21162 | 14.57608 | 261 ft | 93 kts | 323° |
| 2026-04-25 08:00 | 45.21848 | 14.56892 | 262 ft | 150 kts | 323° |
| 2026-04-25 08:01 | 45.22743 | 14.55937 | 724 ft | 162 kts | 323° |
| 2026-04-25 08:01 | 45.23661 | 14.55012 | 1462 ft | 164 kts | 323° |
| 2026-04-25 08:01 | 45.24660 | 14.54044 | 1869 ft | 183 kts | 324° |
| 2026-04-25 08:01 | 45.25757 | 14.52997 | 2327 ft | 196 kts | 325° |
| 2026-04-25 08:02 | 45.26921 | 14.51855 | 2761 ft | 211 kts | 324° |
| 2026-04-25 08:02 | 45.28163 | 14.50604 | 3172 ft | 233 kts | 323° |
| 2026-04-25 08:02 | 45.29437 | 14.49037 | 3638 ft | 253 kts | 307° |
| 2026-04-25 08:02 | 45.30259 | 14.46764 | 4220 ft | 266 kts | 282° |
| 2026-04-25 08:03 | 45.30392 | 14.44150 | 5052 ft | 268 kts | 262° |
| 2026-04-25 08:03 | 45.29833 | 14.41629 | 5919 ft | 270 kts | 240° |
| 2026-04-25 08:03 | 45.28641 | 14.39581 | 6806 ft | 271 kts | 219° |
| 2026-04-25 08:03 | 45.26961 | 14.38375 | 7650 ft | 277 kts | 195° |
| 2026-04-25 08:04 | 45.25011 | 14.38124 | 8356 ft | 286 kts | 182° |
| 2026-04-25 08:04 | 45.23009 | 14.38035 | 9150 ft | 290 kts | 183° |
| 2026-04-25 08:04 | 45.20971 | 14.37912 | 9937 ft | 295 kts | 184° |
| 2026-04-25 08:04 | 45.18887 | 14.37623 | 10382 ft | 311 kts | 195° |
| 2026-04-25 08:05 | 45.16741 | 14.36711 | 10599 ft | 334 kts | 199° |
| 2026-04-25 08:05 | 45.14456 | 14.35655 | 10821 ft | 354 kts | 204° |
| 2026-04-25 08:05 | 45.12370 | 14.33856 | 11321 ft | 359 kts | 219° |
| 2026-04-25 08:05 | 45.10384 | 14.31665 | 11999 ft | 364 kts | 220° |
| 2026-04-25 08:06 | 45.08422 | 14.29369 | 12700 ft | 368 kts | 224° |
| 2026-04-25 08:06 | 45.06669 | 14.26720 | 13357 ft | 371 kts | 232° |
| 2026-04-25 08:06 | 45.05060 | 14.23849 | 14005 ft | 375 kts | 234° |
| 2026-04-25 08:06 | 45.03519 | 14.20860 | 14616 ft | 378 kts | 236° |
| 2026-04-25 08:07 | 45.02017 | 14.17792 | 15227 ft | 381 kts | 237° |
| 2026-04-25 08:07 | 45.00526 | 14.14685 | 15842 ft | 383 kts | 237° |
| 2026-04-25 08:07 | 44.99028 | 14.11560 | 16462 ft | 386 kts | 237° |
| 2026-04-25 08:07 | 44.97543 | 14.08391 | 17064 ft | 388 kts | 242° |
| 2026-04-25 08:08 | 44.96584 | 14.04844 | 17629 ft | 388 kts | 259° |
| 2026-04-25 08:08 | 44.96447 | 14.01039 | 18193 ft | 390 kts | 277° |
| 2026-04-25 08:08 | 44.97128 | 13.97343 | 18679 ft | 392 kts | 290° |
| 2026-04-25 08:08 | 44.98057 | 13.93700 | 19177 ft | 394 kts | 290° |
| 2026-04-25 08:09 | 44.98989 | 13.90053 | 19673 ft | 396 kts | 290° |
| 2026-04-25 08:09 | 44.99925 | 13.86380 | 20169 ft | 399 kts | 290° |
| 2026-04-25 08:09 | 45.00864 | 13.82675 | 20664 ft | 401 kts | 289° |
| 2026-04-25 08:09 | 45.01804 | 13.78949 | 21147 ft | 403 kts | 289° |
| 2026-04-25 08:10 | 45.02747 | 13.75200 | 21623 ft | 406 kts | 289° |
| 2026-04-25 08:10 | 45.03692 | 13.71430 | 22087 ft | 408 kts | 289° |
| 2026-04-25 08:10 | 45.04628 | 13.67683 | 22549 ft | 411 kts | 289° |
| 2026-04-25 08:10 | 45.05580 | 13.63865 | 23016 ft | 413 kts | 289° |
| 2026-04-25 08:11 | 45.06538 | 13.60023 | 23442 ft | 415 kts | 289° |
| 2026-04-25 08:11 | 45.07501 | 13.56157 | 23840 ft | 418 kts | 289° |
| 2026-04-25 08:11 | 45.08472 | 13.52265 | 24189 ft | 420 kts | 289° |
| 2026-04-25 08:11 | 45.09445 | 13.48362 | 24549 ft | 422 kts | 289° |
| 2026-04-25 08:12 | 45.10412 | 13.44463 | 24890 ft | 424 kts | 289° |
| 2026-04-25 08:12 | 45.11390 | 13.40514 | 25225 ft | 426 kts | 289° |
| 2026-04-25 08:12 | 45.12373 | 13.36538 | 25559 ft | 429 kts | 289° |
| 2026-04-25 08:12 | 45.13359 | 13.32542 | 25891 ft | 431 kts | 289° |
| 2026-04-25 08:13 | 45.14347 | 13.28524 | 26225 ft | 433 kts | 289° |
| 2026-04-25 08:13 | 45.15338 | 13.24487 | 26547 ft | 435 kts | 289° |
| 2026-04-25 08:13 | 45.16337 | 13.20423 | 26865 ft | 438 kts | 289° |
| 2026-04-25 08:14 | 45.18347 | 13.12231 | 27485 ft | 442 kts | 289° |
| 2026-04-25 08:14 | 45.19343 | 13.08153 | 27774 ft | 444 kts | 289° |
| 2026-04-25 08:14 | 45.20353 | 13.04001 | 28060 ft | 446 kts | 289° |
| 2026-04-25 08:14 | 45.21365 | 12.99836 | 28341 ft | 448 kts | 289° |
| 2026-04-25 08:15 | 45.22381 | 12.95655 | 28622 ft | 450 kts | 288° |
| 2026-04-25 08:15 | 45.23399 | 12.91446 | 28891 ft | 452 kts | 288° |
| 2026-04-25 08:15 | 45.24422 | 12.87213 | 29179 ft | 454 kts | 288° |
| 2026-04-25 08:15 | 45.25444 | 12.82987 | 29578 ft | 452 kts | 288° |
| 2026-04-25 08:16 | 45.26462 | 12.78771 | 29985 ft | 451 kts | 288° |
| 2026-04-25 08:16 | 45.27474 | 12.74560 | 30354 ft | 450 kts | 288° |
| 2026-04-25 08:16 | 45.28481 | 12.70360 | 30693 ft | 449 kts | 288° |
| 2026-04-25 08:16 | 45.29485 | 12.66167 | 31041 ft | 448 kts | 288° |
| 2026-04-25 08:17 | 45.30487 | 12.61977 | 31384 ft | 447 kts | 288° |
| 2026-04-25 08:17 | 45.31483 | 12.57803 | 31730 ft | 446 kts | 288° |
| 2026-04-25 08:17 | 45.32460 | 12.53692 | 32012 ft | 445 kts | 288° |
| 2026-04-25 08:18 | 45.34956 | 12.45654 | 32085 ft | 445 kts | 297° |
| 2026-04-25 08:18 | 45.37872 | 12.37883 | 32085 ft | 445 kts | 297° |
| 2026-04-25 08:19 | 45.40775 | 12.30113 | 32083 ft | 445 kts | 297° |
| 2026-04-25 08:19 | 45.43660 | 12.22319 | 32084 ft | 445 kts | 296° |
| 2026-04-25 08:20 | 45.46054 | 12.15840 | 32091 ft | 445 kts | 297° |
| 2026-04-25 08:20 | 45.48934 | 12.08044 | 32083 ft | 445 kts | 296° |
| 2026-04-25 08:21 | 45.51810 | 12.00249 | 32092 ft | 445 kts | 296° |
| 2026-04-25 08:21 | 45.54683 | 11.92435 | 32099 ft | 444 kts | 296° |
| 2026-04-25 08:22 | 45.57541 | 11.84622 | 32095 ft | 444 kts | 296° |
| 2026-04-25 08:22 | 45.61026 | 11.77342 | 32093 ft | 445 kts | 304° |
| 2026-04-25 08:23 | 45.64698 | 11.70227 | 32090 ft | 444 kts | 304° |
| 2026-04-25 08:23 | 45.68337 | 11.63165 | 32096 ft | 444 kts | 304° |
| 2026-04-25 08:24 | 45.71994 | 11.56053 | 32097 ft | 444 kts | 304° |
| 2026-04-25 08:24 | 45.75655 | 11.48934 | 32113 ft | 443 kts | 304° |
| 2026-04-25 08:25 | 45.79305 | 11.41804 | 32113 ft | 444 kts | 304° |
| 2026-04-25 08:25 | 45.82945 | 11.34666 | 32126 ft | 443 kts | 304° |
| 2026-04-25 08:26 | 45.86578 | 11.27522 | 32139 ft | 443 kts | 304° |
| 2026-04-25 08:26 | 45.90203 | 11.20376 | 32135 ft | 443 kts | 304° |
| 2026-04-25 08:27 | 45.93823 | 11.13216 | 32134 ft | 443 kts | 304° |
| 2026-04-25 08:27 | 45.97439 | 11.06052 | 32156 ft | 443 kts | 304° |
| 2026-04-25 08:28 | 46.01031 | 10.98934 | 32160 ft | 443 kts | 304° |
| 2026-04-25 08:28 | 46.04636 | 10.91757 | 32124 ft | 441 kts | 304° |
| 2026-04-25 08:28 | 46.06426 | 10.88188 | 31455 ft | 439 kts | 304° |
| 2026-04-25 08:29 | 46.08222 | 10.84610 | 30571 ft | 442 kts | 304° |
| 2026-04-25 08:29 | 46.10033 | 10.81004 | 29612 ft | 445 kts | 304° |
| 2026-04-25 08:29 | 46.11847 | 10.77380 | 28542 ft | 448 kts | 303° |
| 2026-04-25 08:29 | 46.13673 | 10.73720 | 27641 ft | 448 kts | 303° |
| 2026-04-25 08:30 | 46.15481 | 10.70092 | 26942 ft | 443 kts | 303° |
| 2026-04-25 08:30 | 46.17099 | 10.66341 | 26256 ft | 436 kts | 292° |
| 2026-04-25 08:30 | 46.18019 | 10.62225 | 25605 ft | 428 kts | 281° |
| 2026-04-25 08:30 | 46.18643 | 10.58041 | 24904 ft | 426 kts | 280° |
| 2026-04-25 08:31 | 46.19251 | 10.53873 | 24234 ft | 423 kts | 280° |
| 2026-04-25 08:31 | 46.19846 | 10.49728 | 23545 ft | 421 kts | 280° |
| 2026-04-25 08:31 | 46.20437 | 10.45594 | 22741 ft | 420 kts | 280° |
| 2026-04-25 08:31 | 46.21022 | 10.41474 | 21898 ft | 420 kts | 279° |
| 2026-04-25 08:32 | 46.21548 | 10.37325 | 21005 ft | 420 kts | 274° |
| 2026-04-25 08:32 | 46.21646 | 10.33115 | 20112 ft | 420 kts | 269° |
| 2026-04-25 08:32 | 46.21673 | 10.28884 | 19226 ft | 423 kts | 269° |
| 2026-04-25 08:32 | 46.21693 | 10.24641 | 18360 ft | 424 kts | 269° |
| 2026-04-25 08:33 | 46.21709 | 10.20368 | 17308 ft | 426 kts | 269° |
| 2026-04-25 08:33 | 46.21712 | 10.16085 | 16533 ft | 426 kts | 269° |
| 2026-04-25 08:33 | 46.21707 | 10.11865 | 16123 ft | 414 kts | 269° |
| 2026-04-25 08:33 | 46.21698 | 10.07771 | 15721 ft | 403 kts | 269° |
| 2026-04-25 08:34 | 46.21684 | 10.03767 | 15341 ft | 394 kts | 269° |
| 2026-04-25 08:34 | 46.21668 | 9.99856 | 15069 ft | 383 kts | 269° |
| 2026-04-25 08:34 | 46.21659 | 9.96125 | 14940 ft | 370 kts | 269° |
| 2026-04-25 08:34 | 46.21648 | 9.92479 | 14813 ft | 357 kts | 269° |
| 2026-04-25 08:35 | 46.21637 | 9.88947 | 14692 ft | 345 kts | 269° |
| 2026-04-25 08:35 | 46.21625 | 9.85537 | 14560 ft | 334 kts | 269° |
| 2026-04-25 08:35 | 46.21615 | 9.82247 | 14450 ft | 322 kts | 269° |
| 2026-04-25 08:35 | 46.21602 | 9.79066 | 14329 ft | 312 kts | 269° |
| 2026-04-25 08:36 | 46.21585 | 9.75974 | 14206 ft | 303 kts | 269° |
| 2026-04-25 08:36 | 46.21566 | 9.72968 | 14088 ft | 295 kts | 269° |
| 2026-04-25 08:36 | 46.21547 | 9.70034 | 13969 ft | 289 kts | 269° |
| 2026-04-25 08:36 | 46.21527 | 9.67174 | 13837 ft | 281 kts | 269° |
| 2026-04-25 08:37 | 46.21508 | 9.64384 | 13697 ft | 274 kts | 269° |
| 2026-04-25 08:37 | 46.21489 | 9.61667 | 13569 ft | 266 kts | 269° |
| 2026-04-25 08:37 | 46.21473 | 9.59029 | 13434 ft | 259 kts | 269° |
| 2026-04-25 08:37 | 46.21461 | 9.56495 | 13300 ft | 252 kts | 269° |
| 2026-04-25 08:38 | 46.21450 | 9.53971 | 13170 ft | 246 kts | 269° |
| 2026-04-25 08:38 | 46.21441 | 9.51530 | 13041 ft | 240 kts | 270° |
| 2026-04-25 08:38 | 46.21755 | 9.49210 | 12917 ft | 233 kts | 294° |
| 2026-04-25 08:38 | 46.22664 | 9.47413 | 12782 ft | 222 kts | 318° |
| 2026-04-25 08:39 | 46.23994 | 9.46346 | 12522 ft | 220 kts | 343° |
| 2026-04-25 08:39 | 46.25501 | 9.46196 | 12357 ft | 220 kts | 8° |
| 2026-04-25 08:39 | 46.26923 | 9.46974 | 12355 ft | 221 kts | 33° |
| 2026-04-25 08:39 | 46.28014 | 9.48534 | 12364 ft | 222 kts | 53° |
| 2026-04-25 08:40 | 46.28931 | 9.50341 | 12354 ft | 223 kts | 53° |
| 2026-04-25 08:40 | 46.29855 | 9.52147 | 12354 ft | 223 kts | 53° |
| 2026-04-25 08:40 | 46.30779 | 9.53945 | 12351 ft | 220 kts | 53° |
| 2026-04-25 08:40 | 46.31656 | 9.55655 | 12340 ft | 205 kts | 53° |
| 2026-04-25 08:41 | 46.32478 | 9.57305 | 12355 ft | 201 kts | 59° |
| 2026-04-25 08:41 | 46.33080 | 9.59131 | 12366 ft | 200 kts | 68° |
| 2026-04-25 08:41 | 46.33594 | 9.61001 | 12368 ft | 200 kts | 68° |
| 2026-04-25 08:41 | 46.34110 | 9.62874 | 12367 ft | 201 kts | 68° |
| 2026-04-25 08:42 | 46.34624 | 9.64730 | 12346 ft | 194 kts | 68° |
| 2026-04-25 08:42 | 46.35119 | 9.66519 | 12115 ft | 187 kts | 68° |
| 2026-04-25 08:42 | 46.35629 | 9.68187 | 11851 ft | 177 kts | 58° |
| 2026-04-25 08:42 | 46.36408 | 9.69530 | 11561 ft | 174 kts | 39° |
| 2026-04-25 08:43 | 46.37357 | 9.70608 | 11195 ft | 172 kts | 37° |
| 2026-04-25 08:43 | 46.38292 | 9.71668 | 10840 ft | 169 kts | 38° |
| 2026-04-25 08:43 | 46.39208 | 9.72721 | 10520 ft | 167 kts | 39° |
| 2026-04-25 08:43 | 46.40098 | 9.73776 | 10204 ft | 164 kts | 38° |
| 2026-04-25 08:44 | 46.40981 | 9.74799 | 9872 ft | 162 kts | 38° |
| 2026-04-25 08:44 | 46.41859 | 9.75803 | 9524 ft | 161 kts | 38° |
| 2026-04-25 08:44 | 46.42749 | 9.76805 | 9192 ft | 163 kts | 37° |
| 2026-04-25 08:44 | 46.43647 | 9.77805 | 8890 ft | 162 kts | 37° |
| 2026-04-25 08:45 | 46.44530 | 9.78798 | 8576 ft | 160 kts | 38° |
| 2026-04-25 08:45 | 46.45403 | 9.79789 | 8244 ft | 158 kts | 38° |
| 2026-04-25 08:45 | 46.46259 | 9.80791 | 7960 ft | 158 kts | 39° |
| 2026-04-25 08:45 | 46.47099 | 9.81804 | 7649 ft | 156 kts | 39° |
| 2026-04-25 08:46 | 46.47935 | 9.82800 | 7363 ft | 156 kts | 36° |
| 2026-04-25 08:46 | 46.48816 | 9.83721 | 7125 ft | 156 kts | 36° |
| 2026-04-25 08:46 | 46.49674 | 9.84668 | 6865 ft | 153 kts | 38° |
| 2026-04-25 08:46 | 46.50503 | 9.85644 | 6562 ft | 154 kts | 39° |
| 2026-04-25 08:47 | 46.51329 | 9.86649 | 6196 ft | 155 kts | 37° |
| 2026-04-25 08:47 | 46.52256 | 9.87461 | 5792 ft | 156 kts | 29° |
| 2026-04-25 08:47 | 46.53182 | 9.88198 | 5606 ft | 141 kts | 30° |
| 2026-04-25 08:47 | 46.53801 | 9.88703 | 5600 ft | 59 kts | 29° |
| 2026-04-25 08:48 | 46.53993 | 9.88858 | 5603 ft | 15 kts | 30° |
| 2026-04-25 08:48 | 46.54078 | 9.88931 | 5598 ft | 14 kts | 36° |
| 2026-04-25 08:48 | 46.54114 | 9.88980 | 5600 ft | 3 kts | 33° |
| 2026-04-25 08:48 | 46.54132 | 9.88953 | 5605 ft | 7 kts | 253° |
| 2026-04-25 08:49 | 46.54055 | 9.88897 | 5598 ft | 16 kts | 204° |
| 2026-04-25 08:49 | 46.53956 | 9.88828 | 5596 ft | 16 kts | 210° |
| 2026-04-25 08:49 | 46.53855 | 9.88746 | 5597 ft | 17 kts | 209° |
| 2026-04-25 08:49 | 46.53751 | 9.88662 | 5598 ft | 17 kts | 209° |
| 2026-04-25 08:50 | 46.53644 | 9.88574 | 5608 ft | 18 kts | 209° |
| 2026-04-25 08:50 | 46.53533 | 9.88483 | 5605 ft | 19 kts | 209° |
| 2026-04-25 08:50 | 46.53419 | 9.88392 | 5600 ft | 19 kts | 209° |
| 2026-04-25 08:50 | 46.53301 | 9.88297 | 5602 ft | 20 kts | 209° |
| 2026-04-25 08:51 | 46.53180 | 9.88199 | 5605 ft | 20 kts | 209° |
| 2026-04-25 08:51 | 46.53063 | 9.88103 | 5605 ft | 16 kts | 210° |
| 2026-04-25 08:51 | 46.52994 | 9.88047 | 5601 ft | 7 kts | 210° |
| 2026-04-25 08:51 | 46.52981 | 9.88005 | 5607 ft | 4 kts | 281° |
| 2026-04-25 08:52 | 46.52991 | 9.87977 | 5604 ft | 5 kts | 300° |
| 2026-04-25 08:52 | 46.53029 | 9.87938 | 5604 ft | 6 kts | 2° |
| 2026-04-25 08:52 | 46.53065 | 9.87963 | 5609 ft | 5 kts | 31° |
| 2026-04-25 08:52 | 46.53089 | 9.87989 | 5604 ft | 6 kts | 53° |
| 2026-04-25 08:53 | 46.53118 | 9.88029 | 5602 ft | 4 kts | 3° |
| 2026-04-25 08:53 | 46.53125 | 9.88012 | 5604 ft | 0 kts | 298° |